Startpagina
METAR-TAF:

METAR-TAF

Vliegvelden :

Aéroport de La Réunion Roland-Garros

Saint-Denis, Réunion

breedte: 20-53S, lengte: 055-31E, hoogte: 21 m

Actueel weer

Dit bericht is 18 minuten geleden gemaakt, om 19:30 UTC
Wind 10 kt uit het zuidzuidoosten
Temperatuur 21°C
Vochtigheid 69%
Druk 1019 hPa
Zicht 10 km of meer

METAR: FMEE 231930Z AUTO 15010KT 9999 NCD 21/15 Q1019 NOSIG

Tijdstip: 23:48 (19:48 UTC)

Verwachting

Dit bericht is 2 uur en het 48 minuten geleden gemaakt, om 17:00 UTC
Verwachting geldig van 23 om 18 UTC tot 24 om 24 UTC
Wind 12 kt uit het zuidoosten
Zicht 10 km of meer
Weinig wolken op 2600 ft
Verspreide wolken op 4600 ft
Wijzigt naar
van 24 om 04 UTC tot 24 om 06 UTC
Wind 20 kt uit het oostzuidoosten met uitschieters tot 30 kt
Wijzigt naar
van 24 om 15 UTC tot 24 om 17 UTC
Wind 12 kt uit het oostzuidoosten

TAF: FMEE 231700Z 2318/2424 13012KT 9999 FEW026 SCT046 BECMG 2404/2406 12020G30KT BECMG 2415/2417 12012KT

Waarnemingen en weersverwachtingen van meer dan 4000 vliegvelden (METAR en TAF).

De beschikbare stations zijn de gele en rode punten op de kaart.

Ga met uw muis naar het station om de naam te zien.

Klik dan om waarnemingen en weersverwachtingen te zien.

kaart wijzigen: klik op de groene knoppen met een zwart kruis om in te zoomen, op de groene knop met een streepje om uit te zoomen of op de groene pijlen voor aangrenzende kaarten.


METAR-TAF: